createdAt,value
2022-12-19T00:00:29.526Z,-6.28
2022-12-19T00:02:59.041Z,-6.35
2022-12-19T00:05:27.142Z,-6.28
2022-12-19T00:07:55.136Z,-6.22
2022-12-19T00:10:23.453Z,-6.12
2022-12-19T00:12:51.426Z,-6.04
2022-12-19T00:15:19.453Z,-6.20
2022-12-19T00:17:47.454Z,-6.19
2022-12-19T00:20:18.576Z,-6.28
2022-12-19T00:22:46.814Z,-6.31
2022-12-19T00:25:14.899Z,-6.38
2022-12-19T00:27:44.082Z,-6.38
2022-12-19T00:30:13.377Z,-6.24
2022-12-19T00:32:42.425Z,-6.41
2022-12-19T00:35:10.821Z,-6.47
2022-12-19T00:37:41.463Z,-6.54
2022-12-19T00:40:17.768Z,-6.55
2022-12-19T00:42:51.702Z,-6.53
2022-12-19T00:45:21.593Z,-6.80
2022-12-19T00:47:49.595Z,-6.57
2022-12-19T00:50:17.725Z,-6.53
2022-12-19T00:52:47.133Z,-6.64
2022-12-19T00:55:19.288Z,-6.50
2022-12-19T00:57:48.218Z,-6.53
2022-12-19T01:00:18.318Z,-6.92
2022-12-19T01:02:46.919Z,-6.97
2022-12-19T01:05:15.166Z,-6.73
2022-12-19T01:07:43.251Z,-6.72
2022-12-19T01:10:12.778Z,-6.82
2022-12-19T01:12:48.398Z,-7.09
2022-12-19T01:15:20.543Z,-7.03
2022-12-19T01:17:49.000Z,-7.19
2022-12-19T01:20:28.893Z,-7.03
2022-12-19T01:23:00.128Z,-7.21
2022-12-19T01:25:30.229Z,-7.22
2022-12-19T01:27:58.869Z,-7.06
2022-12-19T01:30:27.654Z,-7.01
2022-12-19T01:32:57.967Z,-6.91
2022-12-19T01:35:28.950Z,-6.93
2022-12-19T01:38:07.661Z,-6.93
2022-12-19T01:40:39.240Z,-6.92
2022-12-19T01:43:13.826Z,-7.33
2022-12-19T01:45:45.870Z,-7.17
2022-12-19T01:48:18.124Z,-7.47
2022-12-19T01:51:02.084Z,-7.44
2022-12-19T01:53:35.752Z,-7.41
2022-12-19T01:56:09.936Z,-7.52
2022-12-19T01:58:40.986Z,-7.56
2022-12-19T02:01:09.308Z,-7.58
2022-12-19T02:03:39.058Z,-7.53
2022-12-19T02:06:13.442Z,-7.58
2022-12-19T02:08:43.322Z,-7.70
2022-12-19T02:11:12.867Z,-7.74
2022-12-19T02:13:41.733Z,-7.67
2022-12-19T02:16:23.443Z,-7.71
2022-12-19T02:19:03.992Z,-7.92
2022-12-19T02:21:55.115Z,-7.97
2022-12-19T02:24:53.672Z,-7.87
2022-12-19T02:27:59.265Z,-7.96
2022-12-19T02:30:43.485Z,-7.89
2022-12-19T02:33:17.430Z,-7.85
2022-12-19T02:35:53.503Z,-7.91
2022-12-19T02:38:30.313Z,-7.97
2022-12-19T02:41:02.648Z,-8.20
2022-12-19T02:43:36.638Z,-8.18
2022-12-19T02:46:08.567Z,-8.14
2022-12-19T02:48:38.379Z,-8.00
2022-12-19T02:51:07.161Z,-7.94
2022-12-19T02:53:38.489Z,-8.09
2022-12-19T02:56:34.789Z,-8.15
2022-12-19T02:59:24.782Z,-8.19
2022-12-19T03:01:58.970Z,-8.22
2022-12-19T03:04:40.847Z,-8.09
2022-12-19T03:07:21.358Z,-8.29
2022-12-19T03:09:59.950Z,-8.28
2022-12-19T03:12:34.246Z,-8.15
2022-12-19T03:15:03.696Z,-8.08
2022-12-19T03:17:37.405Z,-8.21
2022-12-19T03:20:11.437Z,-8.12
2022-12-19T03:22:39.753Z,-8.42
2022-12-19T03:25:08.699Z,-8.49
2022-12-19T03:27:40.593Z,-8.47
2022-12-19T03:30:12.556Z,-8.40
2022-12-19T03:32:45.247Z,-8.23
2022-12-19T03:35:16.905Z,-8.17
2022-12-19T03:37:47.427Z,-8.21
2022-12-19T03:40:19.000Z,-8.18
2022-12-19T03:43:07.572Z,-8.07
2022-12-19T03:45:46.424Z,-8.09
2022-12-19T03:48:20.844Z,-7.93
2022-12-19T03:51:00.009Z,-7.93
2022-12-19T03:53:38.122Z,-7.90
2022-12-19T03:56:14.389Z,-7.83
2022-12-19T03:58:46.754Z,-7.71
2022-12-19T04:01:15.672Z,-7.66
2022-12-19T04:03:45.592Z,-7.76
2022-12-19T04:06:15.658Z,-7.94
2022-12-19T04:08:44.298Z,-7.90
2022-12-19T04:11:20.883Z,-8.66
2022-12-19T04:13:53.457Z,-8.71
2022-12-19T04:16:25.047Z,-8.58
2022-12-19T04:19:00.155Z,-9.13
2022-12-19T04:21:33.757Z,-8.86
2022-12-19T04:24:07.765Z,-8.38
2022-12-19T04:26:38.166Z,-8.35
2022-12-19T04:29:09.118Z,-8.16
2022-12-19T04:31:38.065Z,-8.18
2022-12-19T04:34:07.524Z,-7.95
2022-12-19T04:36:36.058Z,-7.88
2022-12-19T04:39:04.777Z,-7.97
2022-12-19T04:41:34.517Z,-7.84
2022-12-19T04:44:02.836Z,-7.77
2022-12-19T04:46:30.945Z,-7.79
2022-12-19T04:48:58.989Z,-7.78
2022-12-19T04:51:28.563Z,-7.85
2022-12-19T04:53:57.391Z,-7.97
2022-12-19T04:56:25.479Z,-7.92
2022-12-19T04:58:57.902Z,-8.12
2022-12-19T05:01:26.343Z,-8.12
2022-12-19T05:03:57.564Z,-8.19
2022-12-19T05:06:29.552Z,-8.29
2022-12-19T05:08:57.567Z,-8.31
2022-12-19T05:11:25.631Z,-8.32
2022-12-19T05:13:53.684Z,-8.38
2022-12-19T05:16:21.744Z,-8.50
2022-12-19T05:18:49.920Z,-8.73
2022-12-19T05:21:17.898Z,-8.56
2022-12-19T05:23:47.358Z,-8.51
2022-12-19T05:26:15.409Z,-8.55
2022-12-19T05:28:43.436Z,-8.49
2022-12-19T05:31:13.390Z,-8.45
2022-12-19T05:33:42.658Z,-8.43
2022-12-19T05:36:12.072Z,-8.60
2022-12-19T05:38:40.328Z,-8.42
2022-12-19T05:41:11.029Z,-8.31
2022-12-19T05:43:39.160Z,-8.36
2022-12-19T05:46:07.904Z,-8.52
2022-12-19T05:48:36.750Z,-8.47
2022-12-19T05:51:05.109Z,-8.41
2022-12-19T05:53:33.175Z,-8.32
2022-12-19T05:56:06.133Z,-8.53
2022-12-19T05:58:39.629Z,-8.61
2022-12-19T06:01:09.521Z,-8.62
2022-12-19T06:03:38.258Z,-8.55
2022-12-19T06:06:08.550Z,-8.69
2022-12-19T06:08:37.094Z,-8.69
2022-12-19T06:11:07.099Z,-8.70
2022-12-19T06:13:37.243Z,-8.60
2022-12-19T06:16:08.130Z,-8.60
2022-12-19T06:18:40.433Z,-8.58
2022-12-19T06:21:13.158Z,-8.71
2022-12-19T06:23:41.271Z,-8.63
2022-12-19T06:26:18.264Z,-8.76
2022-12-19T06:28:49.459Z,-9.05
2022-12-19T06:31:18.867Z,-8.90
2022-12-19T06:33:46.924Z,-9.00
2022-12-19T06:36:17.990Z,-9.04
2022-12-19T06:38:46.076Z,-9.00
2022-12-19T06:41:31.686Z,-8.99
2022-12-19T06:44:01.983Z,-9.18
2022-12-19T06:46:30.779Z,-9.36
2022-12-19T06:48:58.996Z,-9.28
2022-12-19T06:51:27.482Z,-9.24
2022-12-19T06:53:55.669Z,-9.19
2022-12-19T06:56:24.823Z,-9.24
2022-12-19T06:58:52.994Z,-9.26
2022-12-19T07:01:26.347Z,-9.35
2022-12-19T07:03:55.931Z,-9.55
2022-12-19T07:06:24.705Z,-9.39
2022-12-19T07:08:54.127Z,-9.30
2022-12-19T07:11:22.276Z,-9.39
2022-12-19T07:13:50.288Z,-9.36
2022-12-19T07:16:18.395Z,-9.43
2022-12-19T07:18:47.954Z,-9.30
2022-12-19T07:21:15.993Z,-9.15
2022-12-19T07:23:44.993Z,-9.13
2022-12-19T07:26:13.501Z,-9.17
2022-12-19T07:28:44.508Z,-9.21
2022-12-19T07:31:12.744Z,-9.25
2022-12-19T07:33:44.899Z,-9.63
2022-12-19T07:36:14.263Z,-10.29
2022-12-19T07:38:42.300Z,-10.46
2022-12-19T07:41:10.333Z,-10.33
2022-12-19T07:43:38.312Z,-9.86
2022-12-19T07:46:06.674Z,-9.39
2022-12-19T07:48:34.667Z,-9.23
2022-12-19T07:51:02.777Z,-9.09
2022-12-19T07:53:32.689Z,-8.95
2022-12-19T07:56:00.790Z,-8.88
2022-12-19T07:58:28.841Z,-8.84
2022-12-19T08:00:57.792Z,-8.70
2022-12-19T08:03:26.437Z,-8.57
2022-12-19T08:05:54.677Z,-8.50
2022-12-19T08:08:22.648Z,-8.39
2022-12-19T08:10:52.008Z,-8.27
2022-12-19T08:13:20.022Z,-8.21
2022-12-19T08:15:48.031Z,-8.07
2022-12-19T08:18:16.095Z,-8.11
2022-12-19T08:20:47.113Z,-7.82
2022-12-19T08:23:15.125Z,-7.86
2022-12-19T08:25:43.224Z,-7.79
2022-12-19T08:28:12.619Z,-7.77
2022-12-19T08:30:41.332Z,-7.57
2022-12-19T08:33:09.631Z,-7.41
2022-12-19T08:35:37.791Z,-7.34
2022-12-19T08:38:06.669Z,-7.39
2022-12-19T08:40:35.384Z,-7.46
2022-12-19T08:43:03.353Z,-8.02
2022-12-19T08:45:32.748Z,-7.70
2022-12-19T08:48:00.732Z,-7.49
2022-12-19T08:50:28.784Z,-7.19
2022-12-19T08:52:56.939Z,-7.13
2022-12-19T08:55:25.551Z,-6.99
2022-12-19T08:57:55.888Z,-6.96
2022-12-19T09:00:24.885Z,-7.06
2022-12-19T09:02:55.317Z,-7.13
2022-12-19T09:05:59.558Z,-7.06
2022-12-19T09:08:11.787Z,-7.09
2022-12-19T09:10:40.361Z,-7.03
2022-12-19T09:13:09.572Z,-7.04
2022-12-19T09:15:37.670Z,-6.99
2022-12-19T09:18:08.048Z,-6.77
2022-12-19T09:20:36.129Z,-6.84
2022-12-19T09:23:04.244Z,-6.69
2022-12-19T09:25:32.360Z,-7.16
2022-12-19T09:30:57.113Z,-6.79
2022-12-19T09:33:26.934Z,-6.75
2022-12-19T09:35:56.649Z,-6.55
2022-12-19T09:38:26.496Z,-6.39
2022-12-19T09:41:07.510Z,-6.54
2022-12-19T09:43:53.388Z,-6.28
2022-12-19T09:46:33.364Z,-6.19
2022-12-19T09:49:03.341Z,-6.34
2022-12-19T09:51:38.398Z,-6.15
2022-12-19T09:54:13.579Z,-5.81
2022-12-19T09:56:46.240Z,-5.97
2022-12-19T09:59:22.599Z,-5.87
2022-12-19T10:01:59.152Z,-5.77
2022-12-19T10:04:33.238Z,-5.57
2022-12-19T10:07:20.590Z,-5.36
2022-12-19T10:12:34.643Z,-5.36
2022-12-19T10:12:58.404Z,-5.18
2022-12-19T10:15:38.972Z,-5.23
2022-12-19T10:18:29.528Z,-4.97
2022-12-19T10:21:07.171Z,-4.77
2022-12-19T10:24:07.774Z,-4.68
2022-12-19T10:26:44.400Z,-4.42
2022-12-19T10:29:46.683Z,-4.60
2022-12-19T10:32:22.497Z,-4.30
2022-12-19T10:34:52.182Z,-4.47
2022-12-19T10:37:32.754Z,-4.21
2022-12-19T10:40:16.155Z,-4.26
2022-12-19T10:43:01.385Z,-3.89
2022-12-19T10:45:47.050Z,-3.54
2022-12-19T10:48:20.839Z,-3.82
2022-12-19T10:50:52.940Z,-3.44
2022-12-19T10:53:29.917Z,-3.30
2022-12-19T10:56:02.854Z,-3.27
2022-12-19T10:58:35.181Z,-2.93
2022-12-19T11:01:15.642Z,-2.96
2022-12-19T11:03:46.959Z,-2.97
2022-12-19T11:06:43.030Z,-3.02
2022-12-19T11:09:25.591Z,-2.98
2022-12-19T11:16:09.568Z,-2.80
2022-12-19T11:19:23.334Z,-2.74
2022-12-19T11:27:29.572Z,-2.81
2022-12-19T11:29:35.213Z,-2.83
2022-12-19T11:29:38.650Z,-3.10
2022-12-19T11:30:43.940Z,-2.97
2022-12-19T11:30:44.122Z,-2.93
2022-12-19T11:34:38.489Z,-2.83
2022-12-19T11:37:17.990Z,-2.82
2022-12-19T11:39:49.605Z,-2.62
2022-12-19T11:42:26.041Z,-2.79
2022-12-19T11:45:01.550Z,-2.84
2022-12-19T11:47:36.960Z,-2.87
2022-12-19T11:50:14.595Z,-2.83
2022-12-19T11:53:11.486Z,-2.48
2022-12-19T11:55:45.473Z,-2.44
2022-12-19T11:58:15.376Z,-2.37
2022-12-19T12:00:52.337Z,-2.03
2022-12-19T12:04:03.237Z,-1.94
2022-12-19T12:06:35.420Z,-1.94
2022-12-19T12:12:44.220Z,-1.73
2022-12-19T12:21:09.249Z,-1.29
2022-12-19T12:29:05.419Z,-0.86
2022-12-19T12:31:00.803Z,-0.78
2022-12-19T12:31:25.893Z,-0.52
2022-12-19T12:31:49.679Z,-0.69
2022-12-19T12:31:51.729Z,-0.94
2022-12-19T12:31:52.225Z,-0.70
2022-12-19T12:35:51.511Z,-0.88
2022-12-19T12:39:29.761Z,-0.26
2022-12-19T12:42:12.649Z,-0.41
2022-12-19T12:44:45.949Z,-0.82
2022-12-19T12:47:20.603Z,-1.01
2022-12-19T12:49:54.428Z,-1.00
2022-12-19T12:52:31.205Z,-0.81
2022-12-19T12:54:59.838Z,-1.16
2022-12-19T12:57:37.748Z,-1.26
2022-12-19T13:00:22.490Z,-1.42
2022-12-19T13:02:57.052Z,-1.73
2022-12-19T13:05:35.630Z,-1.47
2022-12-19T13:08:23.938Z,-1.58
2022-12-19T13:10:57.626Z,-1.84
2022-12-19T13:13:54.008Z,-1.95
2022-12-19T13:16:54.284Z,-1.57
2022-12-19T13:19:28.727Z,-1.64
2022-12-19T13:22:17.974Z,-1.69
2022-12-19T13:24:47.443Z,-1.70
2022-12-19T13:27:34.913Z,-1.74
2022-12-19T13:30:21.423Z,-1.93
2022-12-19T13:33:10.281Z,-1.59
2022-12-19T13:39:17.496Z,-1.79
2022-12-19T13:40:00.347Z,-1.92
2022-12-19T13:42:02.708Z,-2.10
2022-12-19T13:44:33.129Z,-2.54
2022-12-19T13:47:01.203Z,-2.27
2022-12-19T13:49:35.139Z,-1.99
2022-12-19T13:52:06.277Z,-2.16
2022-12-19T13:54:45.741Z,-2.05
2022-12-19T13:57:22.437Z,-2.21
2022-12-19T14:00:00.177Z,-2.01
2022-12-19T14:02:34.876Z,-1.99
2022-12-19T14:05:33.808Z,-2.14
2022-12-19T14:08:19.208Z,-2.18
2022-12-19T14:11:40.923Z,-2.19
2022-12-19T14:14:10.158Z,-2.27
2022-12-19T14:16:45.784Z,-2.26
2022-12-19T14:19:24.456Z,-2.37
2022-12-19T14:22:06.855Z,-2.28
2022-12-19T14:24:42.615Z,-2.28
2022-12-19T14:28:18.323Z,-2.35
2022-12-19T14:30:29.765Z,-2.48
2022-12-19T14:33:43.625Z,-2.47
2022-12-19T14:36:06.443Z,-2.62
2022-12-19T14:39:25.330Z,-2.63
2022-12-19T14:42:01.477Z,-2.70
2022-12-19T14:52:11.446Z,-2.69
2022-12-19T14:53:52.475Z,-2.73
2022-12-19T14:54:23.410Z,-2.95
2022-12-19T14:54:28.277Z,-2.89
2022-12-19T14:59:02.507Z,-3.19
2022-12-19T15:01:34.153Z,-3.38
2022-12-19T15:04:52.764Z,-3.35
2022-12-19T15:07:10.036Z,-3.51
2022-12-19T15:11:05.551Z,-3.46
2022-12-19T15:14:48.564Z,-3.40
2022-12-19T15:16:00.573Z,-3.57
2022-12-19T15:18:39.213Z,-3.64
2022-12-19T15:21:09.633Z,-3.64
2022-12-19T15:23:37.817Z,-3.79
2022-12-19T15:26:08.672Z,-3.90
2022-12-19T15:28:43.195Z,-3.98
2022-12-19T15:31:24.551Z,-4.07
2022-12-19T15:34:33.515Z,-4.05
2022-12-19T15:36:40.659Z,-4.05
2022-12-19T15:39:08.709Z,-4.27
2022-12-19T15:41:37.133Z,-4.17
2022-12-19T15:44:10.000Z,-4.31
2022-12-19T15:46:44.744Z,-4.25
2022-12-19T15:49:18.052Z,-4.27
2022-12-19T15:51:46.371Z,-4.27
2022-12-19T15:54:47.153Z,-4.29
2022-12-19T15:57:02.956Z,-4.46
2022-12-19T15:59:38.012Z,-4.35
2022-12-19T16:02:17.547Z,-4.29
2022-12-19T16:04:47.703Z,-4.33
2022-12-19T16:07:18.714Z,-4.33
2022-12-19T16:09:47.450Z,-4.28
2022-12-19T16:12:17.053Z,-4.33
2022-12-19T16:14:45.910Z,-4.31
2022-12-19T16:17:20.440Z,-4.32
2022-12-19T16:19:48.574Z,-4.26
2022-12-19T16:22:19.540Z,-4.29
2022-12-19T16:24:47.722Z,-4.22
2022-12-19T16:27:22.951Z,-4.15
2022-12-19T16:29:51.318Z,-4.17
2022-12-19T16:32:23.106Z,-4.11
2022-12-19T16:34:51.721Z,-4.15
2022-12-19T16:37:19.852Z,-4.27
2022-12-19T16:39:47.933Z,-4.15
2022-12-19T16:42:17.374Z,-4.22
2022-12-19T16:44:48.057Z,-4.25
2022-12-19T16:47:18.347Z,-4.14
2022-12-19T16:49:47.810Z,-4.26
2022-12-19T16:52:16.095Z,-4.30
2022-12-19T16:54:44.197Z,-4.16
2022-12-19T16:57:20.344Z,-4.12
2022-12-19T16:59:49.729Z,-4.37
2022-12-19T17:02:41.742Z,-4.47
2022-12-19T17:05:22.075Z,-4.20
2022-12-19T17:07:50.841Z,-3.97
2022-12-19T17:10:24.361Z,-3.88
2022-12-19T17:12:55.587Z,-3.80
2022-12-19T17:15:28.245Z,-3.77
2022-12-19T17:17:59.335Z,-3.80
2022-12-19T17:20:33.368Z,-3.68
2022-12-19T17:23:01.422Z,-3.65
2022-12-19T17:25:29.540Z,-3.76
2022-12-19T17:27:57.902Z,-3.77
2022-12-19T17:30:26.059Z,-4.06
2022-12-19T17:32:56.777Z,-3.94
2022-12-19T17:35:28.953Z,-3.95
2022-12-19T17:37:59.041Z,-4.24
2022-12-19T17:40:29.525Z,-4.14
2022-12-19T17:42:58.747Z,-4.05
2022-12-19T17:45:29.277Z,-3.83
2022-12-19T17:48:02.881Z,-3.89
2022-12-19T17:50:35.171Z,-3.86
2022-12-19T17:53:05.109Z,-3.60
2022-12-19T17:55:33.778Z,-3.63
2022-12-19T17:58:01.805Z,-3.53
2022-12-19T18:00:33.161Z,-3.60
2022-12-19T18:03:05.999Z,-3.55
2022-12-19T18:05:36.945Z,-3.69
2022-12-19T18:08:20.117Z,-3.51
2022-12-19T18:10:48.270Z,-3.60
2022-12-19T18:13:16.411Z,-3.39
2022-12-19T18:15:44.699Z,-3.27
2022-12-19T18:18:15.184Z,-3.22
2022-12-19T18:20:44.507Z,-3.17
2022-12-19T18:23:19.465Z,-3.07
2022-12-19T18:25:47.562Z,-3.08
2022-12-19T18:28:16.579Z,-3.18
2022-12-19T18:30:45.676Z,-3.09
2022-12-19T18:33:17.709Z,-3.16
2022-12-19T18:35:48.625Z,-3.04
2022-12-19T18:38:20.317Z,-2.97
2022-12-19T18:40:49.327Z,-2.96
2022-12-19T18:43:18.183Z,-2.97
2022-12-19T18:45:48.502Z,-3.66
2022-12-19T18:48:21.989Z,-3.70
2022-12-19T18:50:50.084Z,-3.64
2022-12-19T18:53:26.499Z,-3.83
2022-12-19T18:56:02.666Z,-3.75
2022-12-19T18:58:30.864Z,-3.88
2022-12-19T19:01:02.982Z,-3.79
2022-12-19T19:03:33.911Z,-3.69
2022-12-19T19:06:02.102Z,-3.62
2022-12-19T19:08:35.077Z,-3.47
2022-12-19T19:11:20.372Z,-3.52
2022-12-19T19:13:48.449Z,-3.32
2022-12-19T19:16:19.271Z,-3.34
2022-12-19T19:18:50.064Z,-3.33
2022-12-19T19:21:19.150Z,-3.38
2022-12-19T19:23:51.623Z,-3.59
2022-12-19T19:26:19.704Z,-3.42
2022-12-19T19:28:52.225Z,-3.21
2022-12-19T19:31:23.448Z,-3.11
2022-12-19T19:33:55.995Z,-3.02
2022-12-19T19:36:26.912Z,-3.03
2022-12-19T19:38:58.593Z,-2.92
2022-12-19T19:41:29.832Z,-2.89
2022-12-19T19:43:58.952Z,-2.72
2022-12-19T19:46:27.345Z,-2.61
2022-12-19T19:48:55.925Z,-2.65
2022-12-19T19:51:24.011Z,-2.81
2022-12-19T19:53:52.221Z,-2.94
2022-12-19T19:56:21.602Z,-3.10
2022-12-19T19:58:49.812Z,-3.29
2022-12-19T20:01:18.042Z,-3.42
2022-12-19T20:03:46.462Z,-3.32
2022-12-19T20:06:17.910Z,-3.45
2022-12-19T20:08:47.516Z,-3.67
2022-12-19T20:11:15.624Z,-3.56
2022-12-19T20:13:45.252Z,-3.47
2022-12-19T20:16:16.599Z,-3.40
2022-12-19T20:18:49.812Z,-2.83
2022-12-19T20:21:18.720Z,-2.55
2022-12-19T20:23:47.074Z,-2.41
2022-12-19T20:26:16.379Z,-2.29
2022-12-19T20:28:49.477Z,-2.18
2022-12-19T20:31:19.175Z,-2.03
2022-12-19T20:33:48.558Z,-1.94
2022-12-19T20:36:17.014Z,-1.90
2022-12-19T20:38:45.240Z,-1.86
2022-12-19T20:41:13.422Z,-1.77
2022-12-19T20:43:41.825Z,-1.64
2022-12-19T20:46:13.955Z,-1.54
2022-12-19T20:48:42.997Z,-1.46
2022-12-19T20:51:11.162Z,-1.49
2022-12-19T20:53:41.644Z,-1.37
2022-12-19T20:56:14.017Z,-1.32
2022-12-19T20:58:42.068Z,-1.42
2022-12-19T21:01:14.003Z,-1.28
2022-12-19T21:03:42.883Z,-1.24
2022-12-19T21:06:13.562Z,-1.28
2022-12-19T21:08:43.427Z,-1.37
2022-12-19T21:11:12.489Z,-1.34
2022-12-19T21:13:41.995Z,-1.35
2022-12-19T21:16:14.640Z,-1.24
2022-12-19T21:18:44.944Z,-1.20
2022-12-19T21:21:15.648Z,-1.36
2022-12-19T21:23:44.872Z,-1.27
2022-12-19T21:26:13.347Z,-1.13
2022-12-19T21:28:41.793Z,-1.20
2022-12-19T21:31:16.331Z,-1.16
2022-12-19T21:33:45.318Z,-1.11
2022-12-19T21:36:16.715Z,-1.15
2022-12-19T21:38:44.700Z,-1.07
2022-12-19T21:41:18.717Z,-0.96
2022-12-19T21:43:48.914Z,-0.92
2022-12-19T21:46:19.180Z,-0.88
2022-12-19T21:48:48.940Z,-0.72
2022-12-19T21:51:18.608Z,-0.57
2022-12-19T21:53:46.991Z,-0.54
2022-12-19T21:56:23.783Z,-0.48
2022-12-19T21:58:52.876Z,-0.40
2022-12-19T22:01:23.215Z,-0.37
2022-12-19T22:03:52.328Z,-0.37
2022-12-19T22:06:27.958Z,-0.35
2022-12-19T22:08:57.097Z,-0.30
2022-12-19T22:11:25.873Z,-0.35
2022-12-19T22:13:54.475Z,-0.31
2022-12-19T22:16:24.005Z,-0.31
2022-12-19T22:18:53.158Z,-0.47
2022-12-19T22:21:21.690Z,-0.50
2022-12-19T22:23:49.832Z,-0.60
2022-12-19T22:26:20.643Z,-0.48
2022-12-19T22:28:50.736Z,-0.51
2022-12-19T22:31:21.400Z,-0.48
2022-12-19T22:33:52.420Z,-0.54
2022-12-19T22:36:27.617Z,-0.54
2022-12-19T22:38:57.859Z,-0.48
2022-12-19T22:41:26.491Z,-0.43
2022-12-19T22:43:55.308Z,-0.50
2022-12-19T22:46:26.324Z,-0.57
2022-12-19T22:48:57.429Z,-0.46
2022-12-19T22:51:26.505Z,-0.44
2022-12-19T22:53:54.675Z,-0.33
2022-12-19T22:56:24.538Z,-0.32
2022-12-19T22:58:54.485Z,-0.38
2022-12-19T23:01:24.879Z,-0.23
2022-12-19T23:03:57.189Z,-0.11
2022-12-19T23:06:27.545Z,-0.49
2022-12-19T23:08:55.781Z,-0.52
2022-12-19T23:11:27.182Z,-0.24
2022-12-19T23:13:55.584Z,-0.07
2022-12-19T23:16:23.673Z,0.07
2022-12-19T23:18:51.833Z,-0.04
2022-12-19T23:21:24.031Z,0.20
2022-12-19T23:23:54.771Z,0.33
2022-12-19T23:26:25.116Z,0.37
2022-12-19T23:28:55.158Z,0.10
2022-12-19T23:31:23.663Z,0.40
2022-12-19T23:33:51.987Z,0.48
2022-12-19T23:36:45.312Z,0.28
2022-12-19T23:39:10.568Z,0.02
2022-12-19T23:41:39.102Z,0.28
2022-12-19T23:44:07.436Z,0.51
2022-12-19T23:46:35.455Z,0.19
2022-12-19T23:49:03.563Z,0.18
2022-12-19T23:51:33.365Z,0.48
2022-12-19T23:54:01.408Z,0.49
2022-12-19T23:56:31.470Z,0.32
2022-12-19T23:59:00.062Z,0.55
